createdAt,value
2022-08-19T00:02:17.763Z,20.50
2022-08-19T00:04:47.920Z,20.50
2022-08-19T00:07:15.627Z,20.40
2022-08-19T00:09:43.200Z,20.40
2022-08-19T00:12:11.574Z,20.30
2022-08-19T00:14:39.757Z,20.40
2022-08-19T00:17:08.792Z,20.40
2022-08-19T00:19:37.791Z,20.40
2022-08-19T00:22:06.893Z,20.40
2022-08-19T00:24:34.431Z,20.30
2022-08-19T00:27:25.643Z,20.40
2022-08-19T00:29:52.639Z,20.50
2022-08-19T00:32:21.718Z,20.40
2022-08-19T00:34:49.081Z,20.30
2022-08-19T00:37:16.522Z,20.30
2022-08-19T00:39:44.065Z,20.20
2022-08-19T00:42:11.704Z,20.20
2022-08-19T00:44:39.381Z,20.10
2022-08-19T00:47:07.921Z,20.00
2022-08-19T00:49:48.873Z,20.00
2022-08-19T00:52:30.361Z,19.90
2022-08-19T00:54:59.445Z,19.80
2022-08-19T00:57:39.703Z,19.80
2022-08-19T01:00:15.023Z,19.70
2022-08-19T01:02:43.952Z,20.00
2022-08-19T01:05:16.278Z,19.60
2022-08-19T01:07:45.124Z,19.50
2022-08-19T01:10:15.636Z,19.50
2022-08-19T01:12:43.257Z,19.50
2022-08-19T01:15:14.592Z,19.50
2022-08-19T01:17:43.210Z,19.50
2022-08-19T01:20:17.759Z,19.50
2022-08-19T01:22:52.145Z,19.50
2022-08-19T01:25:25.520Z,19.60
2022-08-19T01:27:55.110Z,19.90
2022-08-19T01:30:32.596Z,19.90
2022-08-19T01:33:03.686Z,19.90
2022-08-19T01:35:32.993Z,19.80
2022-08-19T01:38:03.822Z,19.80
2022-08-19T01:40:34.542Z,19.90
2022-08-19T01:43:03.399Z,19.90
2022-08-19T01:45:33.488Z,20.10
2022-08-19T01:48:02.693Z,20.10
2022-08-19T01:50:32.631Z,20.20
2022-08-19T01:53:06.023Z,20.30
2022-08-19T01:55:41.351Z,20.40
2022-08-19T01:58:15.901Z,20.50
2022-08-19T02:00:46.430Z,20.50
2022-08-19T02:03:14.675Z,20.50
2022-08-19T02:05:42.970Z,20.50
2022-08-19T02:08:11.352Z,20.40
2022-08-19T02:10:44.212Z,20.40
2022-08-19T02:13:13.225Z,20.30
2022-08-19T02:15:41.032Z,20.30
2022-08-19T02:18:09.636Z,20.30
2022-08-19T02:20:38.559Z,20.20
2022-08-19T02:23:06.773Z,20.10
2022-08-19T02:25:42.043Z,19.90
2022-08-19T02:28:09.446Z,19.70
2022-08-19T02:30:37.028Z,19.60
2022-08-19T02:33:04.507Z,19.50
2022-08-19T02:35:32.454Z,19.50
2022-08-19T02:38:18.484Z,19.50
2022-08-19T02:40:54.417Z,19.50
2022-08-19T02:43:22.971Z,19.50
2022-08-19T02:45:52.416Z,19.50
2022-08-19T02:48:25.274Z,19.40
2022-08-19T02:50:56.549Z,19.60
2022-08-19T02:53:26.519Z,19.70
2022-08-19T02:55:54.402Z,19.80
2022-08-19T02:58:23.007Z,19.80
2022-08-19T03:00:55.152Z,19.90
2022-08-19T03:03:22.793Z,19.80
2022-08-19T03:05:56.970Z,19.80
2022-08-19T03:08:25.532Z,19.90
2022-08-19T03:10:54.230Z,19.90
2022-08-19T03:13:22.041Z,20.00
2022-08-19T03:15:50.295Z,20.00
2022-08-19T03:18:18.349Z,19.90
2022-08-19T03:20:51.812Z,20.00
2022-08-19T03:23:19.306Z,20.00
2022-08-19T03:26:03.010Z,20.10
2022-08-19T03:28:36.536Z,20.10
2022-08-19T03:31:18.505Z,20.10
2022-08-19T03:33:57.527Z,20.20
2022-08-19T03:36:27.382Z,20.20
2022-08-19T03:39:00.372Z,20.20
2022-08-19T03:41:45.074Z,20.20
2022-08-19T03:44:19.666Z,20.20
2022-08-19T03:46:49.531Z,20.30
2022-08-19T03:49:18.346Z,20.30
2022-08-19T03:51:48.538Z,20.50
2022-08-19T03:54:18.885Z,20.40
2022-08-19T03:56:48.883Z,20.40
2022-08-19T03:59:21.003Z,20.50
2022-08-19T04:01:48.583Z,20.60
2022-08-19T04:04:15.990Z,20.70
2022-08-19T04:06:45.283Z,20.70
2022-08-19T04:09:14.024Z,20.60
2022-08-19T04:11:49.060Z,20.80
2022-08-19T04:14:20.760Z,20.80
2022-08-19T04:16:49.447Z,20.90
2022-08-19T04:19:18.420Z,21.00
2022-08-19T04:21:48.339Z,21.10
2022-08-19T04:24:16.860Z,21.20
2022-08-19T04:26:45.107Z,21.30
2022-08-19T04:29:17.585Z,21.50
2022-08-19T04:31:46.559Z,21.60
2022-08-19T04:34:17.093Z,21.70
2022-08-19T04:36:46.064Z,21.80
2022-08-19T04:39:17.850Z,21.90
2022-08-19T04:42:04.970Z,22.00
2022-08-19T04:44:35.235Z,22.30
2022-08-19T04:47:11.029Z,22.50
2022-08-19T04:49:39.719Z,22.70
2022-08-19T04:52:07.181Z,22.90
2022-08-19T04:54:38.818Z,22.90
2022-08-19T04:57:11.456Z,23.10
2022-08-19T04:59:40.515Z,23.40
2022-08-19T05:02:10.435Z,23.60
2022-08-19T05:04:40.504Z,24.00
2022-08-19T05:07:11.231Z,24.30
2022-08-19T05:09:58.621Z,24.40
2022-08-19T05:12:29.565Z,24.60
2022-08-19T05:14:58.209Z,25.10
2022-08-19T05:17:28.990Z,25.40
2022-08-19T05:20:17.224Z,25.40
2022-08-19T05:22:46.885Z,25.60
2022-08-19T05:25:21.361Z,25.40
2022-08-19T05:27:49.674Z,25.60
2022-08-19T05:30:18.195Z,25.70
2022-08-19T05:32:46.230Z,26.10
2022-08-19T05:35:13.951Z,26.00
2022-08-19T05:37:41.814Z,26.00
2022-08-19T05:40:10.698Z,26.20
2022-08-19T05:42:38.802Z,26.30
2022-08-19T05:45:07.433Z,26.70
2022-08-19T05:47:42.105Z,26.40
2022-08-19T05:50:10.192Z,26.60
2022-08-19T05:52:43.621Z,26.70
2022-08-19T05:55:13.941Z,27.10
2022-08-19T05:57:41.443Z,27.30
2022-08-19T06:00:12.728Z,27.30
2022-08-19T06:02:41.200Z,27.50
2022-08-19T06:05:10.293Z,27.40
2022-08-19T06:07:40.452Z,27.80
2022-08-19T06:10:10.289Z,28.10
2022-08-19T06:12:38.135Z,28.10
2022-08-19T06:15:12.064Z,29.00
2022-08-19T06:17:39.856Z,29.50
2022-08-19T06:22:42.135Z,30.00
2022-08-19T06:25:12.991Z,30.10
2022-08-19T06:27:58.695Z,30.60
2022-08-19T06:30:28.676Z,29.80
2022-08-19T06:32:56.202Z,29.20
2022-08-19T06:35:24.246Z,28.60
2022-08-19T06:37:51.753Z,28.20
2022-08-19T06:40:19.582Z,28.30
2022-08-19T06:42:54.344Z,28.50
2022-08-19T06:45:25.129Z,29.10
2022-08-19T06:48:02.310Z,29.00
2022-08-19T06:50:30.770Z,28.60
2022-08-19T06:52:58.155Z,27.90
2022-08-19T06:55:33.359Z,27.40
2022-08-19T06:58:05.029Z,27.00
2022-08-19T07:00:32.997Z,26.90
2022-08-19T07:03:04.479Z,26.60
2022-08-19T07:05:45.787Z,26.60
2022-08-19T07:08:14.413Z,26.40
2022-08-19T07:10:46.138Z,26.40
2022-08-19T07:13:13.858Z,26.30
2022-08-19T07:15:41.431Z,26.30
2022-08-19T07:18:11.744Z,26.20
2022-08-19T07:20:40.492Z,26.20
2022-08-19T07:23:11.193Z,26.40
2022-08-19T07:25:43.780Z,26.80
2022-08-19T07:28:18.032Z,27.00
2022-08-19T07:30:53.068Z,26.80
2022-08-19T07:33:21.098Z,26.60
2022-08-19T07:35:48.871Z,26.70
2022-08-19T07:38:17.264Z,26.70
2022-08-19T07:40:47.283Z,26.50
2022-08-19T07:43:17.918Z,26.60
2022-08-19T07:45:46.845Z,26.50
2022-08-19T07:48:15.683Z,26.40
2022-08-19T07:50:43.821Z,26.30
2022-08-19T07:53:13.014Z,26.40
2022-08-19T07:55:43.585Z,26.60
2022-08-19T07:58:14.449Z,26.80
2022-08-19T08:00:43.393Z,26.90
2022-08-19T08:03:11.249Z,27.10
2022-08-19T08:05:57.362Z,27.20
2022-08-19T08:08:44.313Z,27.40
2022-08-19T08:11:15.765Z,27.50
2022-08-19T08:13:45.565Z,27.50
2022-08-19T08:16:14.430Z,27.40
2022-08-19T08:18:50.377Z,27.60
2022-08-19T08:21:20.927Z,27.60
2022-08-19T08:23:48.566Z,27.70
2022-08-19T08:26:17.350Z,28.10
2022-08-19T08:28:49.620Z,28.20
2022-08-19T08:31:17.394Z,27.90
2022-08-19T08:33:45.243Z,27.80
2022-08-19T08:36:15.078Z,27.80
2022-08-19T08:38:47.927Z,28.20
2022-08-19T08:41:54.184Z,28.60
2022-08-19T08:44:39.846Z,28.70
2022-08-19T08:47:16.794Z,28.60
2022-08-19T08:49:52.719Z,28.70
2022-08-19T08:52:37.509Z,28.80
2022-08-19T08:55:13.689Z,28.80
2022-08-19T08:57:50.170Z,28.50
2022-08-19T09:00:22.704Z,28.40
2022-08-19T09:02:50.589Z,28.60
2022-08-19T09:05:22.712Z,28.60
2022-08-19T09:08:15.198Z,28.60
2022-08-19T09:10:56.195Z,28.80
2022-08-19T09:14:01.739Z,29.20
2022-08-19T09:16:29.396Z,29.20
2022-08-19T09:19:06.450Z,29.30
2022-08-19T09:21:35.856Z,29.00
2022-08-19T09:24:04.070Z,28.90
2022-08-19T09:26:48.375Z,28.70
2022-08-19T09:29:22.740Z,28.50
2022-08-19T09:31:51.218Z,28.50
2022-08-19T09:34:22.191Z,28.70
2022-08-19T09:36:54.602Z,28.90
2022-08-19T09:39:22.775Z,29.30
2022-08-19T09:41:51.212Z,29.60
2022-08-19T09:44:19.511Z,29.70
2022-08-19T09:46:50.588Z,29.90
2022-08-19T09:49:19.867Z,30.40
2022-08-19T09:51:51.730Z,30.20
2022-08-19T09:54:24.974Z,30.40
2022-08-19T09:56:59.646Z,30.40
2022-08-19T09:59:28.176Z,30.40
2022-08-19T10:01:55.876Z,30.50
2022-08-19T10:04:51.006Z,30.60
2022-08-19T10:07:18.450Z,30.90
2022-08-19T10:09:46.837Z,31.20
2022-08-19T10:12:17.812Z,30.80
2022-08-19T10:14:47.934Z,31.10
2022-08-19T10:17:17.667Z,30.80
2022-08-19T10:19:55.359Z,30.90
2022-08-19T10:22:25.590Z,31.10
2022-08-19T10:24:54.636Z,31.40
2022-08-19T10:27:22.605Z,30.90
2022-08-19T10:29:50.314Z,31.20
2022-08-19T10:32:17.740Z,31.00
2022-08-19T10:34:48.029Z,31.10
2022-08-19T10:37:16.124Z,31.20
2022-08-19T10:39:52.050Z,31.50
2022-08-19T10:42:22.060Z,31.10
2022-08-19T10:44:49.551Z,30.80
2022-08-19T10:47:25.047Z,31.40
2022-08-19T10:50:16.066Z,31.70
2022-08-19T10:52:49.275Z,31.40
2022-08-19T10:55:39.433Z,31.50
2022-08-19T10:58:12.851Z,32.10
2022-08-19T11:00:41.681Z,31.60
2022-08-19T11:03:09.687Z,31.60
2022-08-19T11:05:40.306Z,31.90
2022-08-19T11:08:22.285Z,33.00
2022-08-19T11:10:58.115Z,33.50
2022-08-19T11:16:07.351Z,35.20
2022-08-19T11:18:40.349Z,36.40
2022-08-19T11:21:36.299Z,36.60
2022-08-19T11:24:17.178Z,35.30
2022-08-19T11:26:46.143Z,34.90
2022-08-19T11:29:14.402Z,34.50
2022-08-19T11:31:44.662Z,35.40
2022-08-19T11:34:15.373Z,35.70
2022-08-19T11:36:46.100Z,34.90
2022-08-19T11:39:16.539Z,35.10
2022-08-19T11:41:43.997Z,36.10
2022-08-19T11:44:11.842Z,37.70
2022-08-19T11:46:39.760Z,36.60
2022-08-19T11:49:13.673Z,36.80
2022-08-19T11:51:44.754Z,36.20
2022-08-19T11:54:14.342Z,36.10
2022-08-19T11:56:42.844Z,35.30
2022-08-19T11:59:14.792Z,35.80
2022-08-19T12:01:43.933Z,35.40
2022-08-19T12:04:12.774Z,35.70
2022-08-19T12:06:41.391Z,35.60
2022-08-19T12:09:11.180Z,34.50
2022-08-19T12:11:40.680Z,34.10
2022-08-19T12:14:14.547Z,34.20
2022-08-19T12:16:48.674Z,34.60
2022-08-19T12:19:21.897Z,34.50
2022-08-19T12:21:51.383Z,34.20
2022-08-19T12:24:24.469Z,34.20
2022-08-19T12:26:53.853Z,34.30
2022-08-19T12:29:25.484Z,34.00
2022-08-19T12:31:54.183Z,33.60
2022-08-19T12:34:22.285Z,33.40
2022-08-19T12:36:50.908Z,33.50
2022-08-19T12:39:18.418Z,34.30
2022-08-19T12:41:54.053Z,35.30
2022-08-19T12:44:29.437Z,34.70
2022-08-19T12:47:00.783Z,34.40
2022-08-19T12:49:52.140Z,34.40
2022-08-19T12:52:22.942Z,34.80
2022-08-19T12:54:54.532Z,33.50
2022-08-19T12:57:33.478Z,34.20
2022-08-19T13:00:15.148Z,34.00
2022-08-19T13:02:46.829Z,33.80
2022-08-19T13:05:22.270Z,34.20
2022-08-19T13:07:54.492Z,33.70
2022-08-19T13:10:23.536Z,33.10
2022-08-19T13:12:53.111Z,32.80
2022-08-19T13:15:24.270Z,32.30
2022-08-19T13:17:54.662Z,33.20
2022-08-19T13:20:23.772Z,33.60
2022-08-19T13:22:51.885Z,33.80
2022-08-19T13:25:21.156Z,33.60
2022-08-19T13:27:52.145Z,34.10
2022-08-19T13:30:39.502Z,33.40
2022-08-19T13:33:15.927Z,33.50
2022-08-19T13:35:58.281Z,33.30
2022-08-19T13:38:26.369Z,32.80
2022-08-19T13:40:55.469Z,33.00
2022-08-19T13:43:24.849Z,33.10
2022-08-19T13:45:57.127Z,33.90
2022-08-19T13:48:30.265Z,33.70
2022-08-19T13:50:57.967Z,33.50
2022-08-19T13:53:26.059Z,33.30
2022-08-19T13:55:55.052Z,34.20
2022-08-19T13:58:23.926Z,34.10
2022-08-19T14:00:52.490Z,34.30
2022-08-19T14:03:20.023Z,33.40
2022-08-19T14:05:48.078Z,33.10
2022-08-19T14:08:15.397Z,33.70
2022-08-19T14:10:45.613Z,33.90
2022-08-19T14:13:18.852Z,33.70
2022-08-19T14:15:46.943Z,34.10
2022-08-19T14:18:16.139Z,35.10
2022-08-19T14:20:43.698Z,35.40
2022-08-19T14:23:13.643Z,34.30
2022-08-19T14:25:41.309Z,33.70
2022-08-19T14:28:09.036Z,32.90
2022-08-19T14:30:39.029Z,32.90
2022-08-19T14:33:08.447Z,33.30
2022-08-19T14:35:36.129Z,34.20
2022-08-19T14:38:06.190Z,34.90
2022-08-19T14:40:33.958Z,34.40
2022-08-19T14:43:05.726Z,34.10
2022-08-19T14:45:38.937Z,33.00
2022-08-19T14:48:12.505Z,32.00
2022-08-19T14:50:46.788Z,31.50
2022-08-19T14:53:15.490Z,30.90
2022-08-19T14:55:44.629Z,30.40
2022-08-19T14:58:29.469Z,30.40
2022-08-19T15:01:00.648Z,30.40
2022-08-19T15:03:29.610Z,30.30
2022-08-19T15:05:58.920Z,30.50
2022-08-19T15:08:27.374Z,30.30
2022-08-19T15:10:55.636Z,30.20
2022-08-19T15:13:23.323Z,30.30
2022-08-19T15:15:50.812Z,30.20
2022-08-19T15:18:18.320Z,30.20
2022-08-19T15:20:46.995Z,30.20
2022-08-19T15:23:16.047Z,30.30
2022-08-19T15:25:44.766Z,30.20
2022-08-19T15:28:12.714Z,30.10
2022-08-19T15:30:41.430Z,30.00
2022-08-19T15:33:08.948Z,30.10
2022-08-19T15:35:36.722Z,30.30
2022-08-19T15:38:04.474Z,30.40
2022-08-19T15:40:32.266Z,30.60
2022-08-19T15:42:59.671Z,31.30
2022-08-19T15:45:33.025Z,31.20
2022-08-19T15:48:05.250Z,31.40
2022-08-19T15:50:33.271Z,31.70
2022-08-19T15:53:05.573Z,31.80
2022-08-19T15:55:35.666Z,31.60
2022-08-19T15:58:29.852Z,31.40
2022-08-19T16:01:21.605Z,31.70
2022-08-19T16:04:14.922Z,32.10
2022-08-19T16:06:49.374Z,31.60
2022-08-19T16:09:23.524Z,31.20
2022-08-19T16:12:01.510Z,31.10
2022-08-19T16:14:31.920Z,31.20
2022-08-19T16:16:59.983Z,30.80
2022-08-19T16:19:27.769Z,30.50
2022-08-19T16:21:57.151Z,30.40
2022-08-19T16:24:27.551Z,30.10
2022-08-19T16:26:56.543Z,29.70
2022-08-19T16:29:33.253Z,29.40
2022-08-19T16:32:10.619Z,29.00
2022-08-19T16:34:39.513Z,28.70
2022-08-19T16:37:07.539Z,28.50
2022-08-19T16:39:35.167Z,28.40
2022-08-19T16:42:02.810Z,28.20
2022-08-19T16:44:30.380Z,28.10
2022-08-19T16:47:00.067Z,28.00
2022-08-19T16:49:53.915Z,27.90
2022-08-19T16:52:17.471Z,27.80
2022-08-19T16:54:45.453Z,27.70
2022-08-19T16:57:13.500Z,27.70
2022-08-19T16:59:42.584Z,27.60
2022-08-19T17:02:22.038Z,27.50
2022-08-19T17:04:58.286Z,27.40
2022-08-19T17:07:33.492Z,27.30
2022-08-19T17:10:02.931Z,27.20
2022-08-19T17:12:32.355Z,27.10
2022-08-19T17:15:02.873Z,27.10
2022-08-19T17:17:31.728Z,27.00
2022-08-19T17:20:00.934Z,26.90
2022-08-19T17:22:29.081Z,26.80
2022-08-19T17:24:58.281Z,26.70
2022-08-19T17:27:26.749Z,26.70
2022-08-19T17:30:00.641Z,26.60
2022-08-19T17:32:28.061Z,26.50
2022-08-19T17:34:55.708Z,26.40
2022-08-19T17:37:23.549Z,26.40
2022-08-19T17:39:51.071Z,26.30
2022-08-19T17:42:18.622Z,26.20
2022-08-19T17:44:50.544Z,26.10
2022-08-19T17:47:19.718Z,25.90
2022-08-19T17:49:47.559Z,25.90
2022-08-19T17:52:14.933Z,25.80
2022-08-19T17:54:42.402Z,25.60
2022-08-19T17:57:09.937Z,25.50
2022-08-19T17:59:40.347Z,25.40
2022-08-19T18:02:10.337Z,25.20
2022-08-19T18:04:38.668Z,25.00
2022-08-19T18:07:06.738Z,24.90
2022-08-19T18:09:41.440Z,25.00
2022-08-19T18:12:17.045Z,25.00
2022-08-19T18:14:45.259Z,24.90
2022-08-19T18:17:18.980Z,24.90
2022-08-19T18:19:49.139Z,24.90
2022-08-19T18:22:35.716Z,24.90
2022-08-19T18:25:06.693Z,24.80
2022-08-19T18:27:34.583Z,24.80
2022-08-19T18:30:04.253Z,24.80
2022-08-19T18:32:42.864Z,24.70
2022-08-19T18:35:16.274Z,24.80
